createdAt,value
2022-10-13T00:00:20.353Z,6.17
2022-10-13T00:05:22.075Z,6.57
2022-10-13T00:10:26.441Z,8.13
2022-10-13T00:15:28.278Z,7.97
2022-10-13T00:20:30.027Z,6.60
2022-10-13T00:25:34.053Z,6.67
2022-10-13T00:30:38.164Z,6.93
2022-10-13T00:35:44.639Z,6.83
2022-10-13T00:40:50.817Z,7.43
2022-10-13T00:45:58.986Z,7.77
2022-10-13T00:51:00.768Z,8.30
2022-10-13T00:56:03.972Z,8.40
2022-10-13T01:01:08.265Z,7.73
2022-10-13T01:06:31.175Z,8.03
2022-10-13T01:11:46.982Z,7.63
2022-10-13T01:17:09.953Z,7.87
2022-10-13T01:22:39.786Z,9.40
2022-10-13T01:27:45.039Z,8.40
2022-10-13T01:33:01.273Z,8.83
2022-10-13T01:38:10.756Z,9.37
2022-10-13T01:43:29.305Z,8.83
2022-10-13T01:48:31.762Z,10.97
2022-10-13T01:53:38.709Z,12.33
2022-10-13T01:58:40.555Z,13.10
2022-10-13T02:04:21.502Z,12.43
2022-10-13T02:09:46.202Z,11.20
2022-10-13T02:14:49.649Z,11.47
2022-10-13T02:19:51.937Z,11.93
2022-10-13T02:24:53.607Z,12.23
2022-10-13T02:29:56.816Z,10.63
2022-10-13T02:35:06.154Z,11.50
2022-10-13T02:40:08.683Z,11.30
2022-10-13T02:45:12.979Z,10.10
2022-10-13T02:50:19.128Z,10.97
2022-10-13T02:55:21.109Z,11.10
2022-10-13T03:00:35.528Z,10.87
2022-10-13T03:05:44.716Z,10.80
2022-10-13T03:10:50.998Z,11.87
2022-10-13T03:15:54.575Z,11.30
2022-10-13T03:21:01.990Z,11.90
2022-10-13T03:26:07.316Z,11.50
2022-10-13T03:31:14.477Z,12.10
2022-10-13T03:36:23.231Z,12.47
2022-10-13T03:41:28.302Z,13.05
2022-10-13T03:46:33.584Z,13.70
2022-10-13T03:51:38.553Z,12.93
2022-10-13T03:56:40.649Z,13.20
2022-10-13T04:01:46.902Z,12.23
2022-10-13T04:06:49.864Z,13.60
2022-10-13T04:11:54.109Z,13.20
2022-10-13T04:16:57.926Z,13.83
2022-10-13T04:22:00.339Z,14.20
2022-10-13T04:27:06.951Z,14.83
2022-10-13T04:32:08.659Z,13.80
2022-10-13T04:37:12.771Z,14.13
2022-10-13T04:42:17.712Z,15.07
2022-10-13T04:47:22.119Z,15.00
2022-10-13T04:52:26.448Z,14.53
2022-10-13T04:57:30.528Z,14.40
2022-10-13T05:02:34.258Z,14.87
2022-10-13T05:07:38.210Z,15.70
2022-10-13T05:12:43.300Z,14.13
2022-10-13T05:17:47.323Z,14.53
2022-10-13T05:22:49.065Z,14.77
2022-10-13T05:27:53.267Z,15.60
2022-10-13T05:33:03.217Z,15.47
2022-10-13T05:38:09.026Z,16.63
2022-10-13T05:43:15.041Z,15.23
2022-10-13T05:48:18.849Z,15.50
2022-10-13T05:53:24.408Z,16.93
2022-10-13T05:58:27.173Z,18.20
2022-10-13T06:03:33.913Z,18.67
2022-10-13T06:08:36.448Z,18.17
2022-10-13T06:13:40.279Z,18.60
2022-10-13T06:18:47.453Z,16.37
2022-10-13T06:23:54.469Z,18.40
2022-10-13T06:29:03.304Z,17.60
2022-10-13T06:34:05.182Z,17.93
2022-10-13T06:39:08.726Z,18.53
2022-10-13T06:44:15.535Z,17.60
2022-10-13T06:49:21.105Z,19.53
2022-10-13T06:54:23.784Z,20.17
2022-10-13T06:59:27.857Z,20.37
2022-10-13T07:04:32.003Z,20.60
2022-10-13T07:09:40.964Z,22.07
2022-10-13T07:14:45.982Z,21.03
2022-10-13T07:19:57.101Z,23.57
2022-10-13T07:25:04.635Z,22.60
2022-10-13T07:30:07.754Z,26.53
2022-10-13T07:35:10.698Z,24.90
2022-10-13T07:40:14.546Z,28.33
2022-10-13T07:45:16.867Z,24.67
2022-10-13T07:50:24.722Z,25.33
2022-10-13T07:55:27.499Z,27.23
2022-10-13T08:00:33.824Z,27.47
2022-10-13T08:05:39.281Z,27.00
2022-10-13T08:10:47.997Z,28.97
2022-10-13T08:15:49.879Z,28.20
2022-10-13T08:20:55.559Z,28.70
2022-10-13T08:25:59.021Z,30.40
2022-10-13T08:31:01.070Z,30.27
2022-10-13T08:36:08.455Z,30.27
2022-10-13T08:41:17.818Z,31.33
2022-10-13T08:46:30.806Z,30.93
2022-10-13T08:51:34.073Z,30.15
2022-10-13T08:56:38.648Z,29.23
2022-10-13T09:01:43.357Z,30.57
2022-10-13T09:07:07.152Z,28.50
2022-10-13T09:12:15.890Z,28.00
2022-10-13T09:17:22.693Z,28.02
2022-10-13T09:22:34.193Z,29.40
2022-10-13T09:27:48.465Z,28.90
2022-10-13T09:33:07.657Z,29.38
2022-10-13T09:38:10.759Z,28.55
2022-10-13T09:43:59.913Z,27.92
2022-10-13T09:49:28.601Z,26.25
2022-10-13T09:54:35.513Z,26.95
2022-10-13T09:59:41.600Z,25.85
2022-10-13T10:04:44.710Z,27.77
2022-10-13T10:09:58.098Z,29.63
2022-10-13T10:15:10.273Z,27.02
2022-10-13T10:20:20.626Z,27.20
2022-10-13T10:25:34.438Z,26.70
2022-10-13T10:30:44.021Z,27.55
2022-10-13T10:36:17.368Z,27.67
2022-10-13T10:41:33.467Z,25.27
2022-10-13T10:46:49.544Z,28.30
2022-10-13T10:51:57.036Z,27.98
2022-10-13T10:57:17.189Z,27.10
2022-10-13T11:02:36.322Z,29.42
2022-10-13T11:07:44.301Z,28.58
2022-10-13T11:12:51.287Z,28.48
2022-10-13T11:17:53.340Z,29.25
2022-10-13T11:23:01.014Z,28.73
2022-10-13T11:28:21.773Z,31.63
2022-10-13T11:33:40.835Z,35.50
2022-10-13T11:38:42.925Z,31.60
2022-10-13T11:44:00.089Z,32.45
2022-10-13T11:49:13.055Z,34.22
2022-10-13T11:54:39.296Z,35.80
2022-10-13T11:59:48.426Z,33.90
2022-10-13T12:05:19.582Z,35.45
2022-10-13T12:10:32.663Z,34.30
2022-10-13T12:15:41.420Z,35.85
2022-10-13T12:20:53.864Z,34.92
2022-10-13T12:25:59.034Z,34.58
2022-10-13T12:31:00.950Z,34.53
2022-10-13T12:36:34.330Z,34.08
2022-10-13T12:41:40.879Z,34.15
2022-10-13T12:46:43.507Z,35.75
2022-10-13T12:52:09.604Z,35.42
2022-10-13T12:57:20.647Z,33.28
2022-10-13T13:02:30.496Z,34.28
2022-10-13T13:07:37.018Z,37.40
2022-10-13T13:12:41.476Z,36.33
2022-10-13T13:17:59.230Z,34.67
2022-10-13T13:23:03.695Z,36.47
2022-10-13T13:28:10.919Z,36.80
2022-10-13T13:33:12.609Z,35.08
2022-10-13T13:38:19.478Z,37.17
2022-10-13T13:43:22.224Z,35.78
2022-10-13T13:48:27.234Z,36.50
2022-10-13T13:53:37.095Z,37.45
2022-10-13T13:58:41.407Z,38.00
2022-10-13T14:03:45.294Z,38.55
2022-10-13T14:08:52.556Z,37.47
2022-10-13T14:13:54.508Z,37.28
2022-10-13T14:19:02.348Z,38.28
2022-10-13T14:24:07.510Z,38.75
2022-10-13T14:29:09.304Z,38.90
2022-10-13T14:34:15.572Z,39.40
2022-10-13T14:39:17.314Z,41.13
2022-10-13T14:44:19.035Z,40.58
2022-10-13T14:49:23.825Z,41.00
2022-10-13T14:54:27.755Z,42.67
2022-10-13T14:59:32.680Z,41.50
2022-10-13T15:04:37.470Z,43.40
2022-10-13T15:09:52.916Z,42.95
2022-10-13T15:15:03.762Z,41.45
2022-10-13T15:20:08.930Z,42.58
2022-10-13T15:25:12.112Z,42.60
2022-10-13T15:30:16.148Z,44.55
2022-10-13T15:35:20.209Z,43.25
2022-10-13T15:40:24.893Z,43.65
2022-10-13T15:45:29.010Z,48.28
2022-10-13T15:50:33.026Z,39.92
2022-10-13T15:55:41.810Z,38.00
2022-10-13T16:00:47.679Z,38.17
2022-10-13T16:05:49.414Z,40.85
2022-10-13T16:10:59.434Z,42.03
2022-10-13T16:16:08.516Z,44.13
2022-10-13T16:21:19.218Z,46.28
2022-10-13T16:26:21.223Z,44.85
2022-10-13T16:31:25.367Z,50.10
2022-10-13T16:36:32.781Z,47.33
2022-10-13T16:41:43.064Z,50.97
2022-10-13T16:46:49.878Z,52.05
2022-10-13T16:51:57.158Z,50.10
2022-10-13T16:56:59.822Z,51.80
2022-10-13T17:02:03.153Z,51.17
2022-10-13T17:07:10.045Z,50.95
2022-10-13T17:12:14.452Z,55.92
2022-10-13T17:17:16.114Z,54.80
2022-10-13T17:22:21.200Z,52.85
2022-10-13T17:27:25.623Z,55.95
2022-10-13T17:32:27.368Z,57.58
2022-10-13T17:37:29.102Z,59.30
2022-10-13T17:42:34.248Z,52.65
2022-10-13T17:47:39.491Z,56.10
2022-10-13T17:52:41.347Z,59.03
2022-10-13T17:57:45.508Z,56.83
2022-10-13T18:02:47.264Z,55.40
2022-10-13T18:07:53.556Z,53.58
2022-10-13T18:12:57.757Z,51.42
2022-10-13T18:18:01.903Z,51.50
2022-10-13T18:23:07.479Z,50.72
2022-10-13T18:28:12.186Z,59.22
2022-10-13T18:33:14.981Z,53.90
2022-10-13T18:38:20.046Z,57.80
2022-10-13T18:43:26.321Z,68.18
2022-10-13T18:48:30.880Z,64.55
2022-10-13T18:53:41.576Z,63.85
2022-10-13T18:58:58.398Z,62.28
2022-10-13T19:04:02.440Z,64.55
2022-10-13T19:09:09.395Z,61.63
2022-10-13T19:14:12.746Z,65.60
2022-10-13T19:19:14.719Z,60.00
2022-10-13T19:24:21.730Z,65.72
2022-10-13T19:29:30.508Z,65.63
2022-10-13T19:34:33.998Z,66.13
2022-10-13T19:39:38.477Z,66.45
2022-10-13T19:44:43.529Z,68.22
2022-10-13T19:49:45.337Z,69.03
2022-10-13T19:54:47.244Z,69.28
2022-10-13T19:59:50.050Z,62.25
2022-10-13T20:04:54.162Z,61.78
2022-10-13T20:09:58.185Z,62.38
2022-10-13T20:15:16.109Z,64.65
2022-10-13T20:20:22.508Z,66.53
2022-10-13T20:25:26.616Z,66.47
2022-10-13T20:30:35.007Z,67.28
2022-10-13T20:35:36.706Z,69.82
2022-10-13T20:40:38.418Z,68.57
2022-10-13T20:45:42.325Z,68.28
2022-10-13T20:50:44.042Z,70.47
2022-10-13T20:55:56.113Z,69.32
2022-10-13T21:00:58.207Z,66.97
2022-10-13T21:06:04.162Z,66.35
2022-10-13T21:11:08.735Z,65.43
2022-10-13T21:16:15.563Z,65.85
2022-10-13T21:21:24.222Z,67.25
2022-10-13T21:26:29.876Z,69.13
2022-10-13T21:31:32.666Z,63.22
2022-10-13T21:36:34.488Z,63.85
2022-10-13T21:41:41.353Z,59.22
2022-10-13T21:46:46.371Z,64.53
2022-10-13T21:51:49.200Z,61.05
2022-10-13T21:56:53.218Z,64.35
2022-10-13T22:01:58.591Z,59.05
2022-10-13T22:07:01.323Z,57.92
2022-10-13T22:12:03.502Z,53.92
2022-10-13T22:17:11.021Z,52.70
2022-10-13T22:22:15.970Z,46.20
2022-10-13T22:27:17.673Z,52.17
2022-10-13T22:32:19.473Z,53.03
2022-10-13T22:37:28.903Z,46.72
2022-10-13T22:42:30.576Z,47.35
2022-10-13T22:47:36.793Z,50.00
2022-10-13T23:33:29.557Z,57.30
2022-10-13T23:38:31.979Z,59.47
2022-10-13T23:43:33.761Z,64.93
2022-10-13T23:48:41.513Z,77.10
2022-10-13T23:53:44.055Z,69.43
2022-10-13T23:58:51.781Z,71.25
